Rockford, IL

9:03 AM CDT on June 02, 2015 (GMT -0500)
KILROCKF11 | | Change Station
CLOSE
Current Station
Personal Weather Station
Location: Rockford, IL
Elevation: 879 ft
Nearby Weather Stations

Elev 879 ft 42.29 °N, 89.01 °W | Updated 3 minutes ago

Partly Cloudy
Partly Cloudy
60.2 °F
Feels Like 60.2 °F
N
1.0
Wind Variable Wind from WSW
Gusts 4.0 mph

Today
High -- | Low -- °F
--% Chance of Precip.
Yesterday
High -- | Low -- °F
Precip. -- in
5:21 AM 8:26 PM
Full, 100% visible
Pressure 30.22 in
Visibility 10.0 miles
Clouds Scattered Clouds 25000 ft
Dew Point 46 °F
Humidity 59%
Rainfall 0.00 in
Snow Depth Not available.
UV 4 out of 12
Pollen 7.80 out of 12
Air Quality Not available.
Flu Activity Sporadic
METAR KRFD 021354Z 00000KT 10SM SCT250 14/06 A3022 RMK AO2 SLP234 T01440061

More Conditions Fewer Conditions

Pressure 30.22 in
Visibility 10.0 miles
Clouds Scattered Clouds 25000 ft
Dew Point 46 °F
Humidity 59%
Rainfall 0.00 in
Snow Depth Not available.
UV 4 out of 12
Pollen 7.80 out of 12
Air Quality Not available.
Flu Activity Sporadic
METAR KRFD 021354Z 00000KT 10SM SCT250 14/06 A3022 RMK AO2 SLP234 T01440061

More Conditions Fewer Conditions

10-Day Weather Forecast

Almanac

Astronomy

Jun. 02, 2015 Rise Set
Actual Time
Civil Twilight
Nautical Twilight
Astronomical Twilight
Moon
Length of Visible Light
Length of Day
Tomorrow will be .
, % of the Moon is Illuminated

Today's Extremes

State Highs State Lows

Community

WunderPhotos

Upload Photos

1,825,915 photos uploaded!

WunderBlogs® & News

Nearby

Air Quality

  Air Quality AQ Index Pollutant
Not available.

Snow Depth

Station Depth Elevation

Earthquake Activity

City Distance Mag. Time & Date
Minimum magnitude displayed is 2.5.

Coastal Water Temperatures

Place Temperature

Stations

Nearby Weather Stations

Station Location Temp. Windchill Dew Point Humidity Wind Precip. Elev Updated Type